Time;durP1;ratioP1;P1;durP2;ratioP2;P2;SDS_P1;SDS_P2;PMS_P1;PMS_P2;Temp;Humidity;BMP_temperature;BMP_pressure;BME280_temperature;BME280_humidity;BME280_pressure;Samples;Min_cycle;Max_cycle;Signal;HPM_P1;HPM_P2
2024/04/10 00:00:47;;;;;;;;;13.67;10.33;;;;;;;;5339866;26;8880;-79
2024/04/10 00:03:16;;;;;;;;;2.00;2.00;;;;;;;;5345216;26;8824;-78
2024/04/10 00:05:41;;;;;;;;;7.50;3.00;;;;;;;;5349008;26;8824;-78
2024/04/10 00:08:06;;;;;;;;;3.00;3.00;;;;;;;;5349709;26;8928;-76
2024/04/10 00:10:32;;;;;;;;;5.33;3.00;;;;;;;;5349214;26;8922;-76
2024/04/10 00:12:57;;;;;;;;;5.00;3.67;;;;;;;;5348695;26;8868;-76
2024/04/10 00:15:22;;;;;;;;;8.33;5.33;;;;;;;;5342447;26;8922;-76
2024/04/10 00:17:47;;;;;;;;;3.67;1.33;;;;;;;;5331825;26;8909;-77
2024/04/10 00:20:13;;;;;;;;;1.00;1.00;;;;;;;;5334571;26;8867;-76
2024/04/10 00:22:38;;;;;;;;;3.00;3.00;;;;;;;;5332500;26;8892;-77
2024/04/10 00:25:04;;;;;;;;;4.00;1.00;;;;;;;;5330765;26;8915;-77
2024/04/10 00:27:29;;;;;;;;;2.00;2.00;;;;;;;;5329581;26;8899;-77
2024/04/10 00:29:55;;;;;;;;;2.00;1.00;;;;;;;;5330304;26;8887;-80
2024/04/10 00:32:20;;;;;;;;;4.67;2.00;;;;;;;;5349518;26;8902;-79
2024/04/10 00:34:46;;;;;;;;;5.00;1.67;;;;;;;;5340583;26;8929;-81
2024/04/10 00:37:11;;;;;;;;;4.00;3.00;;;;;;;;5347553;26;8902;-80
2024/04/10 00:39:36;;;;;;;;;5.67;2.67;;;;;;;;5336463;26;9030;-79
2024/04/10 00:42:02;;;;;;;;;3.67;1.00;;;;;;;;5334726;26;8903;-80
2024/04/10 00:44:27;;;;;;;;;2.67;2.00;;;;;;;;5344165;26;8864;-80
2024/04/10 00:46:53;;;;;;;;;5.00;2.00;;;;;;;;5326804;26;8868;-80
2024/04/10 00:49:18;;;;;;;;;2.00;1.00;;;;;;;;5351647;26;8867;-79
2024/04/10 00:51:44;;;;;;;;;7.00;2.00;;;;;;;;5351968;26;8824;-79
2024/04/10 00:54:10;;;;;;;;;3.67;3.67;;;;;;;;5350711;26;8894;-80
2024/04/10 00:56:35;;;;;;;;;13.67;11.33;;;;;;;;5335892;26;8812;-80
2024/04/10 00:59:01;;;;;;;;;5.67;3.33;;;;;;;;5366701;26;8995;-79
2024/04/10 01:01:26;;;;;;;;;4.33;4.00;;;;;;;;5384883;26;8856;-79
2024/04/10 01:03:51;;;;;;;;;8.00;6.67;;;;;;;;5385433;26;8864;-80
2024/04/10 01:06:16;;;;;;;;;3.67;3.00;;;;;;;;5346368;26;8930;-79
2024/04/10 01:08:42;;;;;;;;;2.67;2.00;;;;;;;;5338380;26;8872;-78
2024/04/10 01:11:08;;;;;;;;;3.33;0.33;;;;;;;;5386535;26;8871;-79
2024/04/10 01:13:34;;;;;;;;;3.75;2.75;;;;;;;;5353121;26;8851;-77
2024/04/10 01:17:44;;;;;;;;;2.00;1.00;;;;;;;;5570217;25;27372;-77
2024/04/10 01:20:09;;;;;;;;;2.00;1.00;;;;;;;;5570463;25;9712;-75
2024/04/10 01:22:35;;;;;;;;;1.00;1.00;;;;;;;;5514670;25;8847;-76
2024/04/10 01:25:01;;;;;;;;;4.00;1.75;;;;;;;;5553164;25;8911;-76
2024/04/10 01:27:26;;;;;;;;;7.33;3.00;;;;;;;;5558255;25;8839;-77
2024/04/10 01:29:52;;;;;;;;;2.67;2.00;;;;;;;;5560655;25;9268;-77
2024/04/10 01:32:17;;;;;;;;;3.67;3.00;;;;;;;;5561201;25;8859;-76
2024/04/10 01:34:43;;;;;;;;;5.67;4.00;;;;;;;;5564140;25;9128;-77
2024/04/10 01:37:08;;;;;;;;;5.33;3.33;;;;;;;;5558004;25;8963;-80
2024/04/10 01:39:33;;;;;;;;;6.33;3.00;;;;;;;;5565897;25;8902;-80
2024/04/10 01:41:59;;;;;;;;;5.00;3.00;;;;;;;;5552257;25;9702;-78
2024/04/10 01:44:24;;;;;;;;;7.00;5.67;;;;;;;;5554384;25;8891;-79
2024/04/10 01:46:49;;;;;;;;;6.33;5.33;;;;;;;;5564155;25;8883;-79
2024/04/10 01:49:14;;;;;;;;;11.67;8.33;;;;;;;;5561690;25;8875;-81
2024/04/10 01:51:40;;;;;;;;;3.00;3.00;;;;;;;;5533795;25;8875;-80
2024/04/10 01:54:05;;;;;;;;;3.67;1.67;;;;;;;;5552413;25;8903;-80
2024/04/10 01:56:30;;;;;;;;;2.67;1.67;;;;;;;;5558406;25;8914;-80
2024/04/10 01:58:55;;;;;;;;;2.67;2.67;;;;;;;;5546989;25;8866;-79
2024/04/10 02:01:21;;;;;;;;;4.00;2.00;;;;;;;;5548741;25;8860;-76
2024/04/10 02:03:46;;;;;;;;;4.00;3.00;;;;;;;;5560104;25;8963;-77
2024/04/10 02:06:12;;;;;;;;;2.33;2.33;;;;;;;;5559276;25;8839;-77
2024/04/10 02:08:37;;;;;;;;;3.00;0.33;;;;;;;;5560843;25;8856;-75
2024/04/10 02:11:20;;;;;;;;;10.00;1.33;;;;;;;;5566486;25;8949;-79
2024/04/10 02:13:45;;;;;;;;;6.50;4.00;;;;;;;;5568014;25;8863;-78
2024/04/10 02:16:11;;;;;;;;;6.33;1.00;;;;;;;;5558253;25;9608;-78
2024/04/10 02:18:36;;;;;;;;;3.00;1.00;;;;;;;;5618339;25;10191;-80
2024/04/10 02:21:01;;;;;;;;;6.00;5.00;;;;;;;;5557675;25;8886;-80
2024/04/10 02:23:26;;;;;;;;;1.00;1.00;;;;;;;;5547743;25;8847;-79
2024/04/10 02:25:52;;;;;;;;;3.67;1.00;;;;;;;;5546329;25;8861;-79
2024/04/10 02:28:17;;;;;;;;;1.67;1.67;;;;;;;;5548519;25;8871;-80
2024/04/10 02:30:42;;;;;;;;;3.00;3.00;;;;;;;;5528280;25;9047;-79
2024/04/10 02:33:07;;;;;;;;;2.00;2.00;;;;;;;;5534538;25;8918;-80
2024/04/10 02:35:32;;;;;;;;;3.00;3.00;;;;;;;;5537420;25;8926;-79
2024/04/10 02:37:57;;;;;;;;;3.33;2.00;;;;;;;;5532602;25;8879;-79
2024/04/10 02:40:29;;;;;;;;;2.33;1.00;;;;;;;;5532920;25;8890;-79
2024/04/10 02:43:04;;;;;;;;;3.00;2.75;;;;;;;;5531937;25;9835;-79
2024/04/10 02:45:29;;;;;;;;;9.50;5.25;;;;;;;;5531214;25;8859;-80
2024/04/10 02:47:54;;;;;;;;;2.00;1.00;;;;;;;;5540602;25;8878;-79
2024/04/10 02:50:19;;;;;;;;;4.33;4.00;;;;;;;;5532246;25;9007;-78
2024/04/10 02:52:45;;;;;;;;;5.67;1.00;;;;;;;;5543233;25;8901;-78
2024/04/10 02:55:10;;;;;;;;;4.00;1.33;;;;;;;;5548155;25;8859;-79
2024/04/10 02:57:35;;;;;;;;;1.33;0.67;;;;;;;;5546099;25;8890;-78
2024/04/10 03:00:00;;;;;;;;;3.33;1.00;;;;;;;;5521680;25;8898;-78
2024/04/10 03:02:26;;;;;;;;;3.67;2.33;;;;;;;;5525858;25;8879;-79
2024/04/10 03:04:52;;;;;;;;;3.00;2.33;;;;;;;;5527240;25;8968;-80
2024/04/10 03:07:17;;;;;;;;;4.67;2.33;;;;;;;;5528594;25;8844;-78
2024/04/10 03:09:42;;;;;;;;;2.33;1.00;;;;;;;;5533787;25;8867;-78
2024/04/10 03:12:08;;;;;;;;;3.67;3.67;;;;;;;;5527718;25;8856;-79
2024/04/10 03:14:33;;;;;;;;;2.33;1.00;;;;;;;;5537328;25;8891;-81
2024/04/10 03:16:59;;;;;;;;;3.00;1.00;;;;;;;;5533731;25;8863;-77
2024/04/10 03:19:24;;;;;;;;;6.67;2.33;;;;;;;;5540634;25;8898;-79
2024/04/10 03:21:50;;;;;;;;;5.00;2.00;;;;;;;;5534970;25;8864;-79
2024/04/10 03:24:15;;;;;;;;;3.67;2.33;;;;;;;;5536293;25;8855;-80
2024/04/10 03:26:40;;;;;;;;;4.00;2.33;;;;;;;;5534403;25;8863;-77
2024/04/10 03:29:05;;;;;;;;;4.00;1.00;;;;;;;;5545547;25;8875;-76
2024/04/10 03:31:31;;;;;;;;;2.67;2.67;;;;;;;;5539979;25;8971;-76
2024/04/10 03:33:57;;;;;;;;;8.00;6.00;;;;;;;;5544571;25;8918;-78
2024/04/10 03:36:23;;;;;;;;;2.00;2.00;;;;;;;;5538852;25;9523;-76
2024/04/10 03:38:51;;;;;;;;;9.00;2.67;;;;;;;;5539258;25;8905;-77
2024/04/10 03:41:16;;;;;;;;;5.50;0.75;;;;;;;;5526771;25;8852;-76
2024/04/10 03:43:41;;;;;;;;;1.00;1.00;;;;;;;;5522195;25;8843;-78
2024/04/10 03:46:08;;;;;;;;;2.00;1.00;;;;;;;;5525429;25;8918;-76
2024/04/10 03:48:33;;;;;;;;;1.25;1.00;;;;;;;;5532260;25;8788;-75
2024/04/10 03:50:59;;;;;;;;;3.67;3.67;;;;;;;;5528788;25;8869;-77
2024/04/10 03:53:24;;;;;;;;;2.33;1.33;;;;;;;;5523561;25;8784;-78
2024/04/10 03:55:49;;;;;;;;;3.33;3.33;;;;;;;;5530952;25;8863;-75
2024/04/10 03:58:15;;;;;;;;;2.33;1.00;;;;;;;;5537462;25;9860;-77
2024/04/10 04:00:40;;;;;;;;;5.33;4.00;;;;;;;;5543082;25;9040;-76
2024/04/10 04:03:05;;;;;;;;;2.00;1.67;;;;;;;;5550370;25;8828;-75
2024/04/10 04:05:31;;;;;;;;;1.67;1.67;;;;;;;;5542745;25;8863;-75
2024/04/10 04:07:56;;;;;;;;;5.00;4.00;;;;;;;;5529169;25;8959;-76
2024/04/10 04:10:21;;;;;;;;;5.00;4.00;;;;;;;;5547940;25;8871;-75
2024/04/10 04:12:46;;;;;;;;;10.33;4.00;;;;;;;;5531159;25;8882;-75
2024/04/10 04:15:12;;;;;;;;;3.00;0.00;;;;;;;;5531678;25;8934;-75
2024/04/10 04:17:37;;;;;;;;;5.00;3.33;;;;;;;;5533001;25;11005;-77
2024/04/10 04:20:03;;;;;;;;;3.33;1.00;;;;;;;;5530035;25;9031;-76
2024/04/10 04:22:28;;;;;;;;;5.00;2.00;;;;;;;;5530774;25;9687;-75
2024/04/10 04:24:53;;;;;;;;;6.00;5.00;;;;;;;;5514530;25;8901;-75
2024/04/10 04:27:19;;;;;;;;;3.00;1.00;;;;;;;;5537247;25;8867;-75
2024/04/10 04:29:46;;;;;;;;;3.67;1.33;;;;;;;;5529288;25;8870;-77
2024/04/10 04:32:11;;;;;;;;;5.75;4.25;;;;;;;;5529509;25;8852;-77
2024/04/10 04:34:36;;;;;;;;;4.00;2.00;;;;;;;;5532572;25;8891;-76
2024/04/10 04:37:01;;;;;;;;;0.67;0.67;;;;;;;;5527785;25;9130;-77
2024/04/10 04:39:27;;;;;;;;;5.00;3.67;;;;;;;;5531007;25;8921;-76
2024/04/10 04:41:52;;;;;;;;;4.00;2.00;;;;;;;;5548388;25;8881;-76
2024/04/10 04:44:17;;;;;;;;;1.33;1.00;;;;;;;;5543770;25;9697;-77
2024/04/10 04:46:42;;;;;;;;;2.00;1.00;;;;;;;;5539018;25;8998;-76
2024/04/10 04:49:08;;;;;;;;;4.00;3.00;;;;;;;;5530587;25;8875;-76
2024/04/10 04:51:33;;;;;;;;;3.33;3.33;;;;;;;;5527021;25;8889;-76
2024/04/10 04:53:58;;;;;;;;;5.33;3.33;;;;;;;;5520378;25;8875;-76
2024/04/10 04:56:23;;;;;;;;;1.00;1.00;;;;;;;;5535066;25;8788;-76
2024/04/10 04:58:49;;;;;;;;;4.00;1.00;;;;;;;;5529192;25;8871;-77
2024/04/10 05:01:14;;;;;;;;;1.00;1.00;;;;;;;;5537288;25;8850;-77
2024/04/10 05:06:23;;;;;;;;;2.50;1.00;;;;;;;;5528148;25;8768;-76
2024/04/10 05:08:48;;;;;;;;;2.00;1.00;;;;;;;;5539112;25;8955;-76
2024/04/10 05:11:14;;;;;;;;;4.67;1.00;;;;;;;;5549780;25;8855;-77
2024/04/10 05:13:39;;;;;;;;;1.33;1.00;;;;;;;;5535097;25;8824;-74
2024/04/10 05:16:06;;;;;;;;;1.00;1.00;;;;;;;;5530762;25;8882;-76
2024/04/10 05:18:31;;;;;;;;;1.75;1.00;;;;;;;;5528091;25;8803;-75
2024/04/10 05:20:57;;;;;;;;;13.67;11.00;;;;;;;;5539279;25;8913;-75
2024/04/10 05:23:22;;;;;;;;;2.00;1.00;;;;;;;;5536113;25;8886;-76
2024/04/10 05:25:49;;;;;;;;;5.00;3.33;;;;;;;;5538777;25;8848;-76
2024/04/10 05:28:24;;;;;;;;;10.00;8.50;;;;;;;;5536779;25;8792;-78
2024/04/10 05:30:49;;;;;;;;;4.00;2.75;;;;;;;;5542072;25;8844;-75
2024/04/10 05:33:14;;;;;;;;;3.00;3.00;;;;;;;;5536484;25;8828;-74
2024/04/10 05:35:39;;;;;;;;;1.33;1.33;;;;;;;;5554869;25;8913;-75
2024/04/10 05:38:04;;;;;;;;;7.67;5.33;;;;;;;;5525523;25;8792;-76
2024/04/10 05:40:30;;;;;;;;;5.00;3.00;;;;;;;;5591171;25;8901;-73
2024/04/10 05:42:55;;;;;;;;;4.00;2.67;;;;;;;;5528348;25;8823;-71
2024/04/10 05:45:21;;;;;;;;;3.67;1.00;;;;;;;;5527311;25;8822;-71
2024/04/10 05:47:50;;;;;;;;;6.00;5.00;;;;;;;;5524635;25;8840;-72
2024/04/10 05:50:15;;;;;;;;;1.00;1.00;;;;;;;;5529190;25;8844;-72
2024/04/10 05:52:41;;;;;;;;;8.00;6.67;;;;;;;;5530209;25;8852;-72
2024/04/10 05:55:07;;;;;;;;;4.75;1.75;;;;;;;;5547904;25;8843;-72
2024/04/10 05:57:33;;;;;;;;;3.00;1.00;;;;;;;;5516897;25;8867;-72
2024/04/10 05:59:59;;;;;;;;;4.50;4.50;;;;;;;;5536626;25;8810;-75
2024/04/10 06:02:27;;;;;;;;;4.33;3.33;;;;;;;;5527341;25;8860;-73
2024/04/10 06:04:53;;;;;;;;;3.00;0.75;;;;;;;;5524354;25;8824;-73
2024/04/10 06:07:18;;;;;;;;;6.00;2.00;;;;;;;;5527509;25;8855;-72
2024/04/10 06:09:43;;;;;;;;;4.00;2.33;;;;;;;;5621846;25;11568;-73
2024/04/10 06:12:09;;;;;;;;;4.00;4.00;;;;;;;;5546923;25;10414;-72
2024/04/10 06:14:34;;;;;;;;;3.33;2.33;;;;;;;;5537784;25;8871;-74
2024/04/10 06:16:59;;;;;;;;;17.33;12.00;;;;;;;;5563884;25;9034;-75
2024/04/10 06:19:25;;;;;;;;;2.00;2.00;;;;;;;;5536182;25;9705;-73
2024/04/10 06:21:50;;;;;;;;;1.33;1.33;;;;;;;;5540299;25;8979;-74
2024/04/10 06:24:18;;;;;;;;;1.67;1.67;;;;;;;;5543357;25;8914;-74
2024/04/10 06:26:43;;;;;;;;;4.25;0.75;;;;;;;;5517386;25;9793;-73
2024/04/10 06:29:09;;;;;;;;;4.67;2.00;;;;;;;;5536738;25;8851;-75
2024/04/10 06:31:34;;;;;;;;;2.00;2.00;;;;;;;;5537991;25;8871;-75
2024/04/10 06:33:59;;;;;;;;;5.33;3.67;;;;;;;;5544862;25;8924;-74
2024/04/10 06:36:24;;;;;;;;;4.00;4.00;;;;;;;;5538639;25;8836;-74
2024/04/10 06:38:50;;;;;;;;;3.25;1.00;;;;;;;;5536845;25;8839;-74
2024/04/10 06:41:15;;;;;;;;;1.00;1.00;;;;;;;;5551132;25;10574;-75
2024/04/10 06:43:40;;;;;;;;;5.25;3.50;;;;;;;;5529511;25;8933;-78
2024/04/10 06:46:08;;;;;;;;;0.75;0.50;;;;;;;;5532147;25;8937;-73
2024/04/10 06:48:34;;;;;;;;;2.00;2.00;;;;;;;;5534598;25;8839;-76
2024/04/10 06:51:03;;;;;;;;;7.00;3.00;;;;;;;;5525903;25;8867;-75
2024/04/10 06:53:29;;;;;;;;;3.60;1.40;;;;;;;;5526441;25;8863;-76
2024/04/10 06:55:55;;;;;;;;;6.50;2.75;;;;;;;;5528207;25;8883;-76
2024/04/10 06:58:21;;;;;;;;;1.25;1.00;;;;;;;;5530567;25;8780;-72
2024/04/10 07:00:59;;;;;;;;;2.00;2.00;;;;;;;;5531262;25;11662;-72
2024/04/10 07:03:27;;;;;;;;;2.00;2.00;;;;;;;;5527646;25;8765;-73
2024/04/10 07:06:02;;;;;;;;;7.00;5.80;;;;;;;;5521741;25;8875;-72
2024/04/10 07:08:27;;;;;;;;;1.00;1.00;;;;;;;;5535086;25;8819;-72
2024/04/10 07:10:53;;;;;;;;;0.25;0.00;;;;;;;;5529693;25;8934;-72
2024/04/10 07:13:18;;;;;;;;;4.75;1.00;;;;;;;;5532125;25;9005;-72
2024/04/10 07:15:43;;;;;;;;;7.00;3.25;;;;;;;;5531357;25;8824;-72
2024/04/10 07:18:09;;;;;;;;;2.50;1.00;;;;;;;;5531813;25;8894;-72
2024/04/10 07:20:34;;;;;;;;;5.25;3.25;;;;;;;;5537122;25;8824;-73
2024/04/10 07:22:59;;;;;;;;;1.00;1.00;;;;;;;;5535767;25;8901;-73
2024/04/10 07:25:28;;;;;;;;;1.75;1.00;;;;;;;;5535488;25;8864;-75
2024/04/10 07:27:54;;;;;;;;;3.00;3.00;;;;;;;;5536455;25;8843;-73
2024/04/10 07:30:19;;;;;;;;;1.40;1.00;;;;;;;;5538821;25;8793;-74
2024/04/10 07:32:44;;;;;;;;;3.50;2.50;;;;;;;;5543988;25;9617;-77
2024/04/10 07:35:10;;;;;;;;;1.75;1.00;;;;;;;;5548698;25;8847;-74
2024/04/10 07:37:35;;;;;;;;;1.50;1.25;;;;;;;;5543032;25;8788;-75
2024/04/10 07:40:01;;;;;;;;;6.00;5.00;;;;;;;;5531233;25;8884;-75
2024/04/10 07:42:26;;;;;;;;;1.00;0.00;;;;;;;;5546992;25;8909;-79
2024/04/10 07:44:51;;;;;;;;;6.00;3.75;;;;;;;;5537037;25;8867;-79
2024/04/10 07:47:17;;;;;;;;;1.50;0.00;;;;;;;;5526753;25;8926;-78
2024/04/10 07:49:42;;;;;;;;;4.00;0.00;;;;;;;;5536077;25;8867;-77
2024/04/10 07:52:10;;;;;;;;;3.00;3.00;;;;;;;;5524167;25;8880;-77
2024/04/10 07:54:36;;;;;;;;;10.00;6.60;;;;;;;;5526681;25;8827;-76
2024/04/10 07:57:03;;;;;;;;;2.00;2.00;;;;;;;;5522211;25;8817;-78
2024/04/10 07:59:28;;;;;;;;;9.80;8.20;;;;;;;;5519544;25;8809;-77
2024/04/10 08:01:53;;;;;;;;;5.00;2.50;;;;;;;;5544397;25;8903;-77
2024/04/10 08:04:19;;;;;;;;;5.50;3.00;;;;;;;;5537550;25;8963;-77
2024/04/10 08:06:44;;;;;;;;;3.50;1.50;;;;;;;;5528790;25;8844;-77
2024/04/10 08:09:10;;;;;;;;;8.00;4.40;;;;;;;;5537722;25;10859;-78
2024/04/10 08:11:36;;;;;;;;;8.67;4.33;;;;;;;;5545346;25;8898;-77
2024/04/10 08:14:01;;;;;;;;;4.33;4.33;;;;;;;;5550894;25;8803;-78
2024/04/10 08:16:28;;;;;;;;;2.00;2.00;;;;;;;;5532294;25;8885;-78
2024/04/10 08:18:53;;;;;;;;;3.00;1.80;;;;;;;;5543936;25;8871;-78
2024/04/10 08:21:18;;;;;;;;;3.75;1.25;;;;;;;;5536012;25;8878;-78
2024/04/10 08:23:44;;;;;;;;;1.00;1.00;;;;;;;;5533032;25;8851;-79
2024/04/10 08:26:09;;;;;;;;;0.50;0.50;;;;;;;;5531745;25;8922;-79
2024/04/10 08:28:37;;;;;;;;;2.00;1.00;;;;;;;;5537382;25;8867;-79
2024/04/10 08:31:02;;;;;;;;;1.00;0.75;;;;;;;;5544680;25;8822;-80
2024/04/10 08:33:27;;;;;;;;;3.33;2.00;;;;;;;;5538145;25;8852;-78
2024/04/10 08:35:57;;;;;;;;;1.33;1.33;;;;;;;;5515357;25;8987;-77
2024/04/10 08:38:22;;;;;;;;;2.75;0.00;;;;;;;;5524569;25;8859;-78
2024/04/10 08:40:51;;;;;;;;;4.00;4.00;;;;;;;;5539818;25;8843;-78
2024/04/10 08:43:17;;;;;;;;;0.40;0.40;;;;;;;;5527113;25;8789;-78
2024/04/10 08:45:43;;;;;;;;;2.00;0.25;;;;;;;;5526078;25;8843;-78
2024/04/10 08:48:08;;;;;;;;;2.67;2.00;;;;;;;;5528338;25;8875;-78
2024/04/10 08:50:35;;;;;;;;;4.33;2.00;;;;;;;;5531225;25;8859;-78
2024/04/10 08:53:02;;;;;;;;;2.00;1.25;;;;;;;;5529677;25;8829;-77
2024/04/10 08:55:27;;;;;;;;;4.00;1.20;;;;;;;;5535177;25;8792;-78
2024/04/10 08:57:52;;;;;;;;;5.33;5.00;;;;;;;;5529681;25;8882;-80
2024/04/10 09:00:18;;;;;;;;;5.50;4.50;;;;;;;;5525934;25;8855;-78
2024/04/10 09:02:43;;;;;;;;;3.00;3.00;;;;;;;;5531744;25;8940;-77
2024/04/10 09:05:08;;;;;;;;;66.00;47.67;;;;;;;;5517399;25;10138;-77
2024/04/10 09:07:33;;;;;;;;;6.00;4.50;;;;;;;;5521218;25;10645;-79
2024/04/10 09:10:20;;;;;;;;;4.75;2.25;;;;;;;;5523743;25;8832;-79
2024/04/10 09:12:45;;;;;;;;;1.40;1.40;;;;;;;;5548133;25;8963;-78
2024/04/10 09:15:11;;;;;;;;;1.25;1.25;;;;;;;;5546104;25;8926;-79
2024/04/10 09:17:36;;;;;;;;;2.80;1.60;;;;;;;;5548106;25;8808;-78
2024/04/10 09:20:12;;;;;;;;;0.50;0.50;;;;;;;;5552491;25;8839;-78
2024/04/10 09:22:37;;;;;;;;;2.00;2.00;;;;;;;;5515516;25;8808;-79
2024/04/10 09:25:20;;;;;;;;;2.00;1.00;;;;;;;;5530657;25;8840;-78
2024/04/10 09:27:46;;;;;;;;;1.60;1.00;;;;;;;;5544298;25;8832;-78
2024/04/10 09:30:12;;;;;;;;;3.25;3.25;;;;;;;;5553231;25;8901;-78
2024/04/10 09:32:38;;;;;;;;;2.80;2.00;;;;;;;;5559915;25;8865;-79
2024/04/10 09:35:05;;;;;;;;;2.20;0.00;;;;;;;;5533288;25;8776;-78
2024/04/10 09:37:32;;;;;;;;;4.80;4.20;;;;;;;;5510554;25;10252;-79
2024/04/10 09:39:57;;;;;;;;;1.00;1.00;;;;;;;;5533963;25;9789;-74
2024/04/10 09:42:26;;;;;;;;;1.50;1.00;;;;;;;;5566424;25;8847;-74
2024/04/10 09:44:56;;;;;;;;;1.80;0.00;;;;;;;;5543945;25;8813;-74
2024/04/10 09:47:25;;;;;;;;;2.00;0.00;;;;;;;;5531230;25;8812;-77
2024/04/10 09:49:59;;;;;;;;;0.60;0.60;;;;;;;;5542557;25;8910;-73
2024/04/10 09:52:25;;;;;;;;;2.80;2.00;;;;;;;;5541421;25;8796;-78
2024/04/10 09:54:51;;;;;;;;;0.00;0.00;;;;;;;;5559016;25;8876;-73
2024/04/10 09:57:18;;;;;;;;;5.00;2.40;;;;;;;;5531429;25;8800;-74
2024/04/10 09:59:43;;;;;;;;;4.20;3.00;;;;;;;;5533967;25;8855;-74
2024/04/10 10:02:09;;;;;;;;;0.25;0.00;;;;;;;;5539953;25;8843;-78
2024/04/10 10:04:37;;;;;;;;;0.00;0.00;;;;;;;;5512848;25;8863;-79
2024/04/10 10:07:03;;;;;;;;;1.60;0.80;;;;;;;;5548452;25;8884;-77
2024/04/10 10:09:28;;;;;;;;;7.00;6.00;;;;;;;;5556735;25;8847;-78
2024/04/10 10:11:57;;;;;;;;;2.00;1.00;;;;;;;;5515111;25;8852;-77
2024/04/10 10:14:24;;;;;;;;;1.00;1.00;;;;;;;;5530225;25;8931;-78
2024/04/10 10:16:49;;;;;;;;;1.40;1.00;;;;;;;;5521611;25;9859;-78
2024/04/10 10:19:19;;;;;;;;;0.00;0.00;;;;;;;;5528764;25;9028;-76
2024/04/10 10:21:44;;;;;;;;;1.20;1.20;;;;;;;;5533212;25;8792;-77
2024/04/10 10:24:13;;;;;;;;;1.75;1.75;;;;;;;;5548283;25;9817;-77
2024/04/10 10:26:38;;;;;;;;;74.00;57.33;;;;;;;;5551504;25;8735;-78
2024/04/10 10:29:04;;;;;;;;;79.00;62.00;;;;;;;;5527089;25;9443;-77
2024/04/10 10:31:29;;;;;;;;;32.00;27.33;;;;;;;;5548901;25;8897;-72
2024/04/10 10:34:01;;;;;;;;;68.50;53.50;;;;;;;;5533948;25;8843;-73
2024/04/10 10:36:31;;;;;;;;;38.75;31.25;;;;;;;;5531606;25;8860;-72
2024/04/10 10:39:05;;;;;;;;;52.33;42.33;;;;;;;;5530096;25;8832;-80
2024/04/10 10:41:30;;;;;;;;;35.50;30.25;;;;;;;;5526134;25;9896;-79
2024/04/10 10:43:59;;;;;;;;;53.33;40.67;;;;;;;;5522759;25;8871;-76
2024/04/10 10:46:24;;;;;;;;;17.20;12.80;;;;;;;;5527253;25;8800;-76
2024/04/10 10:48:49;;;;;;;;;2.75;1.75;;;;;;;;5539950;25;8882;-72
2024/04/10 10:51:20;;;;;;;;;2.75;2.00;;;;;;;;5525364;25;8951;-74
2024/04/10 10:53:46;;;;;;;;;6.80;6.00;;;;;;;;5563380;25;8945;-73
2024/04/10 10:56:11;;;;;;;;;0.40;0.00;;;;;;;;5563362;25;8808;-72
2024/04/10 10:58:37;;;;;;;;;1.00;1.00;;;;;;;;5524847;25;8910;-72
2024/04/10 11:01:07;;;;;;;;;0.50;0.00;;;;;;;;5560291;25;8847;-71
2024/04/10 11:03:32;;;;;;;;;1.00;0.80;;;;;;;;5533440;25;8784;-73
2024/04/10 11:06:10;;;;;;;;;2.50;1.75;;;;;;;;5542905;25;9741;-71
2024/04/10 11:08:35;;;;;;;;;1.60;1.60;;;;;;;;5528682;25;9347;-72
2024/04/10 11:11:04;;;;;;;;;1.00;1.00;;;;;;;;5528723;25;8847;-72
2024/04/10 11:13:29;;;;;;;;;0.60;0.00;;;;;;;;5512372;25;8899;-72
2024/04/10 11:15:57;;;;;;;;;0.00;0.00;;;;;;;;5530426;25;8875;-73
2024/04/10 11:18:26;;;;;;;;;2.00;0.80;;;;;;;;5530868;25;8789;-72
2024/04/10 11:20:52;;;;;;;;;1.00;0.20;;;;;;;;5529376;25;9776;-72
2024/04/10 11:23:18;;;;;;;;;0.00;0.00;;;;;;;;5530135;25;8800;-71
2024/04/10 11:25:46;;;;;;;;;3.50;3.50;;;;;;;;5530395;25;10289;-71
2024/04/10 11:28:12;;;;;;;;;1.80;0.20;;;;;;;;5530674;25;8808;-71
2024/04/10 11:30:38;;;;;;;;;0.00;0.00;;;;;;;;5532661;25;8890;-72
2024/04/10 11:33:06;;;;;;;;;0.00;0.00;;;;;;;;5528373;25;9541;-71
2024/04/10 11:35:32;;;;;;;;;1.00;0.00;;;;;;;;5531687;25;8816;-71
2024/04/10 11:37:57;;;;;;;;;2.25;0.00;;;;;;;;5526854;25;8947;-72
2024/04/10 11:40:22;;;;;;;;;0.00;0.00;;;;;;;;5532798;25;8879;-70
2024/04/10 11:42:51;;;;;;;;;0.50;0.00;;;;;;;;5521188;25;8847;-71
2024/04/10 11:45:17;;;;;;;;;0.00;0.00;;;;;;;;5526711;25;8831;-71
2024/04/10 11:47:46;;;;;;;;;0.00;0.00;;;;;;;;5527823;25;8848;-72
2024/04/10 11:50:12;;;;;;;;;2.00;0.00;;;;;;;;5531491;25;8768;-71
2024/04/10 11:52:37;;;;;;;;;0.00;0.00;;;;;;;;5528275;25;8867;-71
2024/04/10 11:55:06;;;;;;;;;2.75;1.00;;;;;;;;5532345;25;9550;-72
2024/04/10 11:57:32;;;;;;;;;2.60;0.00;;;;;;;;5531913;25;8820;-70
2024/04/10 11:59:57;;;;;;;;;0.00;0.00;;;;;;;;5533572;25;9646;-71
2024/04/10 12:02:24;;;;;;;;;0.00;0.00;;;;;;;;5534390;25;9586;-72
2024/04/10 12:04:49;;;;;;;;;0.00;0.00;;;;;;;;5541909;25;8832;-72
2024/04/10 12:07:14;;;;;;;;;0.00;0.00;;;;;;;;5539314;25;8887;-71
2024/04/10 12:09:40;;;;;;;;;0.00;0.00;;;;;;;;5531836;25;8848;-71
2024/04/10 12:12:06;;;;;;;;;1.00;0.00;;;;;;;;5531840;25;8883;-71
2024/04/10 12:14:31;;;;;;;;;0.50;0.00;;;;;;;;5532156;25;8872;-71
2024/04/10 12:16:57;;;;;;;;;2.50;1.25;;;;;;;;5541965;25;8859;-72
2024/04/10 12:19:22;;;;;;;;;0.75;0.75;;;;;;;;5528653;25;8823;-70
2024/04/10 12:21:47;;;;;;;;;0.00;0.00;;;;;;;;5530576;25;8882;-71
2024/04/10 12:24:13;;;;;;;;;0.00;0.00;;;;;;;;5554847;25;8976;-71
2024/04/10 12:26:38;;;;;;;;;1.00;0.00;;;;;;;;5556723;25;8848;-73
2024/04/10 12:29:03;;;;;;;;;0.50;0.00;;;;;;;;5555755;25;8848;-71
2024/04/10 12:31:28;;;;;;;;;0.00;0.00;;;;;;;;5556735;25;8924;-72
2024/04/10 12:33:53;;;;;;;;;0.00;0.00;;;;;;;;5556117;25;8836;-72
2024/04/10 12:39:05;;;;;;;;;2.40;0.00;;;;;;;;5530694;25;8772;-73
2024/04/10 12:41:30;;;;;;;;;0.00;0.00;;;;;;;;5529771;25;8776;-72
2024/04/10 12:43:56;;;;;;;;;2.50;0.00;;;;;;;;5530520;25;8971;-73
2024/04/10 12:46:26;;;;;;;;;0.60;0.00;;;;;;;;5530532;25;8765;-72
2024/04/10 12:48:52;;;;;;;;;0.00;0.00;;;;;;;;5553436;25;8826;-72
2024/04/10 12:51:17;;;;;;;;;0.00;0.00;;;;;;;;5543769;25;8923;-72
2024/04/10 12:53:43;;;;;;;;;0.67;0.67;;;;;;;;5551097;25;8859;-71
2024/04/10 12:56:09;;;;;;;;;3.00;1.33;;;;;;;;5542431;25;8875;-72
2024/04/10 12:58:34;;;;;;;;;0.00;0.00;;;;;;;;5540170;25;8851;-71
2024/04/10 13:01:00;;;;;;;;;0.00;0.00;;;;;;;;5540980;25;10191;-71
2024/04/10 13:03:27;;;;;;;;;1.00;0.00;;;;;;;;5538412;25;8855;-70
2024/04/10 13:05:55;;;;;;;;;0.00;0.00;;;;;;;;5541828;25;9835;-71
2024/04/10 13:08:21;;;;;;;;;2.50;1.00;;;;;;;;5537610;25;8826;-72
2024/04/10 13:10:47;;;;;;;;;0.00;0.00;;;;;;;;5531661;25;8823;-72
2024/04/10 13:13:13;;;;;;;;;0.50;0.00;;;;;;;;5525824;25;8808;-71
2024/04/10 13:15:38;;;;;;;;;0.00;0.00;;;;;;;;5509528;25;10609;-72
2024/04/10 13:18:03;;;;;;;;;2.67;0.00;;;;;;;;5526968;25;8875;-73
2024/04/10 13:20:29;;;;;;;;;1.33;0.00;;;;;;;;5504811;25;8930;-72
2024/04/10 13:23:00;;;;;;;;;0.00;0.00;;;;;;;;5540422;25;8879;-72
2024/04/10 13:25:25;;;;;;;;;0.00;0.00;;;;;;;;5544928;25;8836;-73
2024/04/10 13:27:51;;;;;;;;;3.00;0.00;;;;;;;;5525627;25;8976;-72
2024/04/10 13:30:17;;;;;;;;;0.00;0.00;;;;;;;;5550562;25;8893;-71
2024/04/10 13:32:43;;;;;;;;;0.00;0.00;;;;;;;;5520391;25;8896;-74
2024/04/10 13:35:08;;;;;;;;;0.00;0.00;;;;;;;;5530312;25;8840;-73
2024/04/10 13:37:33;;;;;;;;;1.00;0.00;;;;;;;;5540242;25;8972;-73
2024/04/10 13:39:58;;;;;;;;;2.33;2.33;;;;;;;;5533523;25;8879;-73
2024/04/10 13:42:24;;;;;;;;;1.00;0.00;;;;;;;;5515604;25;8835;-71
2024/04/10 13:44:49;;;;;;;;;0.00;0.00;;;;;;;;5540392;25;8840;-73
2024/04/10 13:47:14;;;;;;;;;0.00;0.00;;;;;;;;5542685;25;8866;-71
2024/04/10 13:49:39;;;;;;;;;1.00;1.00;;;;;;;;5494279;25;8859;-73
2024/04/10 13:52:05;;;;;;;;;0.00;0.00;;;;;;;;5521401;25;9769;-73
2024/04/10 13:54:34;;;;;;;;;0.67;0.67;;;;;;;;5537092;25;8815;-71
2024/04/10 13:56:59;;;;;;;;;0.00;0.00;;;;;;;;5539247;25;9051;-72
2024/04/10 13:59:25;;;;;;;;;1.00;1.00;;;;;;;;5527601;25;8867;-72
2024/04/10 14:01:50;;;;;;;;;1.00;1.00;;;;;;;;5538761;25;10351;-72
2024/04/10 14:04:15;;;;;;;;;0.33;0.33;;;;;;;;5542011;25;8943;-71
2024/04/10 14:06:41;;;;;;;;;0.00;0.00;;;;;;;;5540239;25;8864;-71
2024/04/10 14:09:06;;;;;;;;;0.00;0.00;;;;;;;;5548382;25;8923;-72
2024/04/10 14:11:31;;;;;;;;;0.00;0.00;;;;;;;;5539152;25;10789;-73
2024/04/10 14:13:57;;;;;;;;;0.33;0.00;;;;;;;;5546752;25;8840;-73
2024/04/10 14:16:22;;;;;;;;;0.00;0.00;;;;;;;;5513780;25;8868;-71
2024/04/10 14:18:47;;;;;;;;;1.33;0.00;;;;;;;;5548456;25;8852;-71
2024/04/10 14:21:13;;;;;;;;;0.00;0.00;;;;;;;;5518191;25;8844;-70
2024/04/10 14:23:39;;;;;;;;;0.00;0.00;;;;;;;;5520260;25;8948;-71
2024/04/10 14:26:04;;;;;;;;;0.00;0.00;;;;;;;;5529189;25;8803;-72
2024/04/10 14:28:30;;;;;;;;;0.67;0.67;;;;;;;;5514111;25;9393;-71
2024/04/10 14:30:59;;;;;;;;;0.00;0.00;;;;;;;;5533049;25;8875;-72
2024/04/10 14:33:25;;;;;;;;;2.00;0.00;;;;;;;;5550681;25;8827;-72
2024/04/10 14:35:50;;;;;;;;;3.00;3.00;;;;;;;;5513086;25;8867;-72
2024/04/10 14:38:16;;;;;;;;;1.33;0.67;;;;;;;;5518134;25;9633;-73
2024/04/10 14:40:41;;;;;;;;;1.00;0.00;;;;;;;;5523427;25;8840;-72
2024/04/10 14:43:07;;;;;;;;;0.00;0.00;;;;;;;;5550364;25;8844;-73
2024/04/10 14:45:32;;;;;;;;;3.00;0.25;;;;;;;;5539135;25;9139;-72
2024/04/10 14:47:57;;;;;;;;;1.00;0.00;;;;;;;;5558288;25;9484;-73
2024/04/10 14:50:22;;;;;;;;;0.00;0.00;;;;;;;;5529555;25;8848;-71
2024/04/10 14:52:47;;;;;;;;;0.00;0.00;;;;;;;;5545628;25;8844;-71
2024/04/10 14:55:12;;;;;;;;;0.00;0.00;;;;;;;;5531882;25;8879;-71